Time;durP1;ratioP1;P1;durP2;ratioP2;P2;SDS_P1;SDS_P2;PMS_P1;PMS_P2;Temp;Humidity;BMP_temperature;BMP_pressure;BME280_temperature;BME280_humidity;BME280_pressure;Samples;Min_cycle;Max_cycle;Signal;HPM_P1;HPM_P2
2022/05/29 00:01:08;;;;;;;3.85;1.27;;;10.30;99.90;;;;;;5002630;28;20223;-78
2022/05/29 00:03:33;;;;;;;2.15;1.95;;;10.20;99.90;;;;;;5002698;28;20049;-80
2022/05/29 00:05:59;;;;;;;3.20;2.05;;;10.20;99.90;;;;;;5003097;28;20135;-79
2022/05/29 00:08:35;;;;;;;14.18;2.15;;;10.20;99.90;;;;;;5002560;28;20180;-79
2022/05/29 00:11:01;;;;;;;2.17;1.63;;;10.10;99.90;;;;;;5000641;28;20056;-79
2022/05/29 00:13:27;;;;;;;2.58;1.40;;;10.10;99.90;;;;;;5001738;28;20049;-79
2022/05/29 00:15:53;;;;;;;2.05;1.60;;;10.10;99.90;;;;;;5001571;28;20046;-79
2022/05/29 00:18:19;;;;;;;1.17;1.13;;;10.00;99.90;;;;;;5002328;28;20485;-79
2022/05/29 00:20:51;;;;;;;2.45;1.70;;;10.10;99.90;;;;;;5002582;28;20117;-79
2022/05/29 00:23:17;;;;;;;4.00;1.98;;;10.00;99.90;;;;;;5001137;28;20042;-79
2022/05/29 00:25:45;;;;;;;2.20;2.03;;;10.10;99.90;;;;;;5000205;28;20103;-79
2022/05/29 00:28:10;;;;;;;2.05;0.90;;;10.00;99.90;;;;;;5001046;28;20049;-79
2022/05/29 00:30:36;;;;;;;1.70;1.45;;;10.00;99.90;;;;;;5002229;28;20400;-79
2022/05/29 00:33:01;;;;;;;3.05;1.75;;;10.10;99.90;;;;;;5000877;28;20139;-79
2022/05/29 00:35:28;;;;;;;2.15;1.35;;;10.10;99.90;;;;;;5002842;28;20041;-78
2022/05/29 00:37:54;;;;;;;6.90;2.05;;;10.10;99.90;;;;;;5002509;28;20045;-79
2022/05/29 00:40:52;;;;;;;2.42;2.05;;;10.10;99.90;;;;;;4999697;28;20436;-79
2022/05/29 00:43:18;;;;;;;4.43;1.13;;;10.10;99.90;;;;;;5000496;28;20103;-80
2022/05/29 00:45:52;;;;;;;3.70;1.63;;;10.00;99.90;;;;;;4983850;28;20065;-80
2022/05/29 00:48:21;;;;;;;4.90;2.72;;;10.00;99.90;;;;;;4982578;28;20049;-80
2022/05/29 00:50:49;;;;;;;2.13;1.50;;;9.90;99.90;;;;;;4981157;28;20046;-80
2022/05/29 00:53:15;;;;;;;3.60;2.25;;;9.90;99.90;;;;;;4982690;28;20046;-80
2022/05/29 00:55:46;;;;;;;1.90;1.80;;;9.80;99.90;;;;;;4980437;28;20093;-80
2022/05/29 00:58:20;;;;;;;8.55;2.78;;;9.80;99.90;;;;;;4980730;28;20728;-80
2022/05/29 01:00:47;;;;;;;3.78;2.05;;;9.80;99.90;;;;;;4982523;28;20042;-79
2022/05/29 01:03:13;;;;;;;9.25;2.45;;;9.90;99.90;;;;;;4981727;28;20058;-79
2022/05/29 01:05:39;;;;;;;9.85;2.72;;;9.90;99.90;;;;;;4981103;28;20074;-79
2022/05/29 01:08:10;;;;;;;6.47;2.85;;;9.90;99.90;;;;;;4982166;28;20133;-80
2022/05/29 01:10:49;;;;;;;3.03;1.45;;;9.90;99.90;;;;;;4981740;28;20038;-80
2022/05/29 01:13:21;;;;;;;2.22;2.03;;;9.90;99.90;;;;;;4982031;28;20047;-80
2022/05/29 01:16:31;;;;;;;7.25;2.15;;;10.00;99.90;;;;;;5001835;28;20115;-79
2022/05/29 01:19:45;;;;;;;3.10;1.27;;;10.00;99.90;;;;;;4932672;28;20115;-80
2022/05/29 01:22:36;;;;;;;2.35;1.58;;;10.10;99.90;;;;;;5000522;28;20132;-80
2022/05/29 01:25:32;;;;;;;4.13;1.60;;;10.10;99.90;;;;;;5001060;28;20038;-79
2022/05/29 01:28:35;;;;;;;1.80;1.70;;;10.20;99.90;;;;;;5002031;28;20061;-79
2022/05/29 01:31:14;;;;;;;5.60;2.25;;;10.30;99.90;;;;;;4983752;28;20061;-79
2022/05/29 01:33:57;;;;;;;6.63;2.45;;;10.30;99.90;;;;;;5000629;28;20057;-79
2022/05/29 01:36:50;;;;;;;1.15;0.90;;;10.30;99.90;;;;;;5001693;28;20045;-79
2022/05/29 01:39:24;;;;;;;5.93;1.70;;;10.40;99.90;;;;;;4999550;28;20405;-78
2022/05/29 01:42:01;;;;;;;2.53;1.15;;;10.40;99.90;;;;;;5000521;28;20046;-79
2022/05/29 01:44:38;;;;;;;2.97;1.75;;;10.40;99.90;;;;;;4984624;28;20072;-79
2022/05/29 01:47:21;;;;;;;9.43;1.25;;;10.40;99.90;;;;;;5001107;28;20096;-80
2022/05/29 01:49:56;;;;;;;6.22;1.48;;;10.40;99.90;;;;;;5001720;28;20045;-79
2022/05/29 01:52:27;;;;;;;6.72;2.22;;;10.40;99.90;;;;;;5001512;28;20412;-79
2022/05/29 01:55:04;;;;;;;2.65;1.30;;;10.40;99.90;;;;;;4999522;28;20046;-79
2022/05/29 01:57:35;;;;;;;6.43;2.05;;;10.40;99.90;;;;;;4985150;28;20049;-79
2022/05/29 02:00:11;;;;;;;2.42;1.60;;;10.40;99.90;;;;;;5005018;28;20188;-79
2022/05/29 02:02:41;;;;;;;2.00;1.80;;;10.30;99.90;;;;;;5003664;28;20140;-79
2022/05/29 02:05:25;;;;;;;9.32;2.42;;;10.40;99.90;;;;;;5004885;28;20057;-79
2022/05/29 02:07:56;;;;;;;2.15;1.75;;;10.40;99.90;;;;;;5005119;28;20046;-79
2022/05/29 02:10:37;;;;;;;2.05;1.23;;;10.30;99.90;;;;;;5017355;28;20034;-79
2022/05/29 02:13:14;;;;;;;1.48;1.38;;;10.40;99.90;;;;;;5003296;28;20042;-79
2022/05/29 02:15:47;;;;;;;2.03;1.13;;;10.40;99.90;;;;;;5004958;28;20049;-79
2022/05/29 02:18:29;;;;;;;2.03;1.85;;;10.40;99.90;;;;;;5003045;28;20050;-79
2022/05/29 02:21:01;;;;;;;5.43;1.05;;;10.40;99.90;;;;;;5004471;28;20041;-78
2022/05/29 02:23:42;;;;;;;6.82;2.33;;;10.40;99.90;;;;;;5004574;28;20077;-78
2022/05/29 02:26:11;;;;;;;4.47;1.27;;;10.40;99.90;;;;;;5003055;28;20038;-79
2022/05/29 02:28:40;;;;;;;4.65;2.13;;;10.40;99.90;;;;;;5003025;28;20092;-79
2022/05/29 02:31:26;;;;;;;0.90;0.90;;;10.50;99.90;;;;;;4986417;28;20045;-78
2022/05/29 02:34:00;;;;;;;1.48;1.38;;;10.50;99.90;;;;;;5004581;28;20042;-79
2022/05/29 02:36:50;;;;;;;2.35;1.58;;;10.50;99.90;;;;;;5004962;28;20038;-79
2022/05/29 02:39:41;;;;;;;5.13;1.80;;;10.60;99.90;;;;;;5001532;28;20130;-79
2022/05/29 02:42:34;;;;;;;1.95;1.73;;;10.60;99.90;;;;;;5003005;28;20046;-79
2022/05/29 02:45:06;;;;;;;2.20;1.38;;;10.60;99.90;;;;;;5003452;28;20060;-78
2022/05/29 02:47:53;;;;;;;5.95;1.35;;;10.60;99.90;;;;;;4986113;28;20046;-79
2022/05/29 02:50:22;;;;;;;3.10;1.50;;;10.60;99.90;;;;;;5003671;28;20089;-79
2022/05/29 02:52:52;;;;;;;5.43;1.85;;;10.60;99.90;;;;;;5003936;28;20049;-79
2022/05/29 02:55:19;;;;;;;2.42;1.65;;;10.60;99.90;;;;;;5003109;28;20069;-79
2022/05/29 02:57:46;;;;;;;11.40;2.35;;;10.60;99.90;;;;;;5003580;28;20204;-79
2022/05/29 03:00:13;;;;;;;2.70;1.40;;;10.60;99.90;;;;;;5003929;28;20100;-79
2022/05/29 03:02:59;;;;;;;5.20;2.08;;;10.50;99.90;;;;;;5004075;28;20054;-78
2022/05/29 03:05:28;;;;;;;4.15;1.85;;;10.50;99.90;;;;;;5003217;28;20050;-78
2022/05/29 03:08:09;;;;;;;4.30;1.73;;;10.50;99.90;;;;;;5003612;28;20133;-78
2022/05/29 03:10:38;;;;;;;4.50;1.90;;;10.50;99.90;;;;;;5002967;28;20068;-78
2022/05/29 03:13:04;;;;;;;8.55;1.90;;;10.50;99.90;;;;;;5002267;28;20081;-78
2022/05/29 03:15:55;;;;;;;10.13;2.33;;;10.40;99.90;;;;;;5004355;28;20081;-78
2022/05/29 03:18:42;;;;;;;4.18;1.67;;;10.40;99.90;;;;;;5003361;28;20057;-78
2022/05/29 03:21:44;;;;;;;4.10;2.22;;;10.40;99.90;;;;;;5001686;28;20053;-78
2022/05/29 03:24:28;;;;;;;2.50;1.40;;;10.40;99.90;;;;;;4971491;28;20054;-78
2022/05/29 03:27:22;;;;;;;6.97;1.52;;;10.40;99.90;;;;;;5001934;28;20050;-78
2022/05/29 03:29:57;;;;;;;2.10;1.90;;;10.40;99.90;;;;;;5003405;28;20550;-78
2022/05/29 03:32:23;;;;;;;6.63;1.85;;;10.40;99.90;;;;;;5001914;28;20050;-78
2022/05/29 03:34:49;;;;;;;1.65;1.02;;;10.40;99.90;;;;;;5001893;28;20045;-77
2022/05/29 03:37:14;;;;;;;1.73;0.85;;;10.40;99.90;;;;;;5001718;28;20057;-78
2022/05/29 03:39:40;;;;;;;1.98;0.90;;;10.40;99.90;;;;;;5002314;28;20061;-78
2022/05/29 03:42:06;;;;;;;2.40;1.17;;;10.40;99.90;;;;;;5003113;28;20109;-78
2022/05/29 03:44:32;;;;;;;1.25;1.17;;;10.40;99.90;;;;;;5002004;28;20128;-77
2022/05/29 03:46:57;;;;;;;5.50;1.63;;;10.40;99.90;;;;;;5001627;28;20052;-79
2022/05/29 03:49:24;;;;;;;1.83;0.95;;;10.40;99.90;;;;;;5000817;28;20041;-78
2022/05/29 03:51:49;;;;;;;3.63;1.88;;;10.40;99.90;;;;;;5002420;28;20554;-78
2022/05/29 03:54:15;;;;;;;1.48;1.02;;;10.40;99.90;;;;;;5000488;28;20042;-78
2022/05/29 03:56:41;;;;;;;5.15;1.25;;;10.40;99.90;;;;;;5002785;28;20050;-79
2022/05/29 03:59:07;;;;;;;0.95;0.93;;;10.40;99.90;;;;;;5002566;28;20067;-78
2022/05/29 04:01:33;;;;;;;3.88;1.90;;;10.40;99.90;;;;;;5002812;28;20547;-78
2022/05/29 04:03:59;;;;;;;1.48;1.38;;;10.40;99.90;;;;;;5001863;28;20054;-78
2022/05/29 04:06:27;;;;;;;1.27;1.13;;;10.40;99.90;;;;;;5001825;28;20053;-78
2022/05/29 04:14:26;;;;;;;1.02;1.02;;;10.20;99.90;;;;;;5002811;28;20056;-78
2022/05/29 04:16:52;;;;;;;1.92;1.33;;;10.20;99.90;;;;;;5001441;28;20057;-78
2022/05/29 04:19:18;;;;;;;2.10;1.50;;;10.20;99.90;;;;;;5002046;28;20041;-78
2022/05/29 04:21:44;;;;;;;2.85;2.08;;;10.20;99.90;;;;;;5000046;28;20038;-78
2022/05/29 04:24:10;;;;;;;1.35;1.30;;;10.20;99.90;;;;;;5001478;28;20050;-78
2022/05/29 04:26:37;;;;;;;2.42;1.17;;;10.20;99.90;;;;;;5002278;28;20432;-79
2022/05/29 04:29:04;;;;;;;1.17;1.10;;;10.30;99.90;;;;;;5002207;28;20042;-78
2022/05/29 04:31:32;;;;;;;4.30;1.83;;;10.30;99.90;;;;;;4984955;28;20038;-78
2022/05/29 04:33:57;;;;;;;6.07;2.60;;;10.30;99.90;;;;;;5001209;28;20050;-78
2022/05/29 04:36:24;;;;;;;1.00;1.00;;;10.30;99.90;;;;;;5002208;28;20120;-78
2022/05/29 04:38:50;;;;;;;3.20;1.15;;;10.40;99.90;;;;;;5001345;28;20096;-78
2022/05/29 04:41:16;;;;;;;3.50;1.05;;;10.40;99.90;;;;;;5002263;28;20042;-78
2022/05/29 04:43:41;;;;;;;1.75;0.88;;;10.40;99.90;;;;;;5002286;28;20547;-78
2022/05/29 04:46:07;;;;;;;1.20;1.13;;;10.40;99.90;;;;;;5001589;28;20038;-78
2022/05/29 04:48:32;;;;;;;2.88;1.25;;;10.50;99.90;;;;;;4971852;28;20079;-78
2022/05/29 04:51:00;;;;;;;1.10;0.90;;;10.50;99.90;;;;;;4989779;28;20412;-78
2022/05/29 04:53:28;;;;;;;6.72;1.60;;;10.50;99.90;;;;;;4983605;28;20133;-78
2022/05/29 04:55:55;;;;;;;4.03;1.42;;;10.50;99.90;;;;;;5001010;28;20057;-78
2022/05/29 04:58:23;;;;;;;4.32;1.48;;;10.60;99.90;;;;;;5001260;28;20046;-79
2022/05/29 05:00:49;;;;;;;5.70;1.70;;;10.60;99.90;;;;;;5000626;28;20045;-78
2022/05/29 05:03:14;;;;;;;6.00;2.30;;;10.60;99.90;;;;;;5000503;28;20062;-78
2022/05/29 05:05:40;;;;;;;1.38;1.10;;;10.60;99.90;;;;;;5001798;28;20042;-78
2022/05/29 05:08:05;;;;;;;1.95;1.23;;;10.60;99.90;;;;;;5000581;28;20128;-78
2022/05/29 05:10:31;;;;;;;1.95;1.13;;;10.70;99.90;;;;;;5001762;28;20069;-78
2022/05/29 05:12:56;;;;;;;2.38;0.90;;;10.70;99.90;;;;;;5000957;28;20046;-78
2022/05/29 05:15:22;;;;;;;2.15;0.93;;;10.70;99.90;;;;;;5001695;28;20034;-78
2022/05/29 05:17:48;;;;;;;1.70;0.93;;;10.70;99.90;;;;;;5001674;28;20124;-78
2022/05/29 05:20:14;;;;;;;5.68;1.75;;;10.60;99.90;;;;;;5002013;28;20045;-78
2022/05/29 05:22:40;;;;;;;1.58;1.48;;;10.70;99.90;;;;;;5000219;28;20061;-79
2022/05/29 05:25:08;;;;;;;6.28;2.08;;;10.60;99.90;;;;;;5000759;28;20096;-78
2022/05/29 05:27:34;;;;;;;1.13;0.93;;;10.70;99.90;;;;;;5000183;28;20050;-78
2022/05/29 05:29:59;;;;;;;5.05;1.60;;;10.70;99.90;;;;;;5000682;28;20042;-78
2022/05/29 05:32:25;;;;;;;3.05;1.33;;;10.60;99.90;;;;;;5004301;28;20050;-78
2022/05/29 05:34:51;;;;;;;6.15;1.50;;;10.70;99.90;;;;;;5004234;28;20050;-78
2022/05/29 05:37:16;;;;;;;9.40;1.83;;;10.70;99.90;;;;;;5003804;28;20046;-78
2022/05/29 05:39:42;;;;;;;3.97;1.65;;;10.70;99.90;;;;;;5003470;28;20049;-78
2022/05/29 05:42:08;;;;;;;1.42;1.33;;;10.60;99.90;;;;;;5003677;28;20045;-78
2022/05/29 05:44:33;;;;;;;4.28;1.40;;;10.70;99.90;;;;;;5003581;28;20133;-78
2022/05/29 05:46:59;;;;;;;10.23;1.23;;;10.70;99.90;;;;;;5005288;28;20034;-78
2022/05/29 05:49:24;;;;;;;7.93;2.65;;;10.70;99.90;;;;;;5004573;28;20117;-78
2022/05/29 05:51:51;;;;;;;4.20;1.35;;;10.80;99.90;;;;;;5003743;28;20050;-77
2022/05/29 05:54:17;;;;;;;3.65;1.65;;;10.80;99.90;;;;;;5002650;28;20138;-78
2022/05/29 05:56:47;;;;;;;2.08;1.88;;;10.80;99.90;;;;;;5004866;28;20181;-79
2022/05/29 05:59:12;;;;;;;5.70;1.52;;;10.90;99.90;;;;;;5003115;28;20096;-78
2022/05/29 06:01:38;;;;;;;2.60;1.38;;;10.90;99.90;;;;;;5004976;28;20485;-79
2022/05/29 06:04:04;;;;;;;2.88;0.82;;;10.90;99.90;;;;;;5004518;28;20064;-79
2022/05/29 06:06:30;;;;;;;2.15;1.48;;;10.90;99.90;;;;;;5003701;28;20085;-78
2022/05/29 06:08:56;;;;;;;3.20;0.98;;;11.00;99.90;;;;;;5003209;28;20384;-78
2022/05/29 06:11:23;;;;;;;2.75;1.63;;;11.00;99.90;;;;;;5004643;28;20045;-78
2022/05/29 06:13:48;;;;;;;2.00;1.65;;;11.10;99.90;;;;;;5004889;28;20046;-78
2022/05/29 06:16:14;;;;;;;4.78;1.20;;;11.10;99.90;;;;;;4986643;28;20135;-78
2022/05/29 06:18:40;;;;;;;1.55;0.80;;;11.10;99.90;;;;;;5003363;28;20350;-78
2022/05/29 06:21:06;;;;;;;1.83;1.48;;;11.20;99.90;;;;;;5003117;28;20076;-78
2022/05/29 06:23:33;;;;;;;2.30;1.42;;;11.20;99.90;;;;;;5002225;28;20050;-78
2022/05/29 06:26:04;;;;;;;7.65;1.38;;;11.20;99.90;;;;;;5004953;28;20044;-78
2022/05/29 06:28:30;;;;;;;1.38;0.80;;;11.10;99.90;;;;;;5004542;28;20046;-78
2022/05/29 06:30:56;;;;;;;4.18;1.83;;;11.10;99.90;;;;;;5004990;28;20042;-77
2022/05/29 06:33:22;;;;;;;4.38;1.75;;;11.00;99.90;;;;;;5003946;28;20046;-78
2022/05/29 06:35:47;;;;;;;2.30;1.02;;;11.00;99.90;;;;;;5004232;28;20030;-77
2022/05/29 06:38:21;;;;;;;7.50;1.25;;;10.90;99.90;;;;;;5002911;28;20103;-79
2022/05/29 06:40:49;;;;;;;1.33;1.15;;;10.90;99.90;;;;;;5004263;28;20077;-77
2022/05/29 06:43:16;;;;;;;1.60;1.08;;;10.90;99.90;;;;;;5001726;28;20153;-78
2022/05/29 06:45:41;;;;;;;3.83;1.58;;;10.90;99.90;;;;;;5002285;28;20579;-78
2022/05/29 06:48:07;;;;;;;2.25;1.40;;;10.90;99.90;;;;;;5002808;28;20124;-79
2022/05/29 06:50:33;;;;;;;0.98;0.93;;;10.90;99.90;;;;;;5003335;28;20400;-78
2022/05/29 06:52:58;;;;;;;0.63;0.63;;;11.00;99.90;;;;;;5003016;28;20451;-78
2022/05/29 06:55:25;;;;;;;2.92;1.27;;;11.00;99.90;;;;;;5003861;28;20042;-78
2022/05/29 06:57:52;;;;;;;1.60;1.45;;;11.00;99.90;;;;;;5003317;28;20080;-77
2022/05/29 07:08:40;;;;;;;2.28;1.15;;;11.10;99.90;;;;;;4992574;28;20050;-77
2022/05/29 07:11:10;;;;;;;6.05;1.38;;;11.10;99.90;;;;;;5001031;28;20038;-78
2022/05/29 07:13:36;;;;;;;2.75;1.35;;;11.10;99.90;;;;;;5002619;28;20088;-78
2022/05/29 07:16:02;;;;;;;1.15;1.05;;;11.10;99.90;;;;;;5003714;28;20034;-78
2022/05/29 07:18:29;;;;;;;2.67;1.10;;;11.10;99.90;;;;;;5003366;28;20085;-78
2022/05/29 07:20:57;;;;;;;1.30;1.08;;;11.10;99.90;;;;;;5002164;28;20038;-78
2022/05/29 07:23:23;;;;;;;1.33;1.20;;;11.10;99.90;;;;;;5002154;28;20081;-77
2022/05/29 07:25:48;;;;;;;3.42;1.17;;;11.00;99.90;;;;;;5002736;28;21252;-78
2022/05/29 07:28:14;;;;;;;0.70;0.55;;;11.00;99.90;;;;;;5002802;28;20093;-77
2022/05/29 07:30:40;;;;;;;0.80;0.80;;;11.00;99.90;;;;;;5001378;28;20037;-78
2022/05/29 07:33:05;;;;;;;2.40;1.58;;;11.00;99.90;;;;;;5002063;28;20443;-78
2022/05/29 07:35:31;;;;;;;1.02;0.88;;;11.00;99.90;;;;;;5001643;28;20479;-78
2022/05/29 07:37:57;;;;;;;1.00;1.00;;;11.00;99.90;;;;;;5000272;28;20242;-80
2022/05/29 07:40:23;;;;;;;1.23;0.85;;;11.00;99.90;;;;;;5001532;28;20537;-77
2022/05/29 07:45:33;;;;;;;2.38;0.95;;;11.10;99.90;;;;;;5001261;28;20057;-79
2022/05/29 07:47:59;;;;;;;2.20;1.70;;;11.10;99.90;;;;;;5001755;28;20038;-78
2022/05/29 07:50:25;;;;;;;2.80;0.80;;;11.20;99.90;;;;;;5002356;28;20124;-78
2022/05/29 07:52:52;;;;;;;0.73;0.73;;;11.20;99.90;;;;;;5001694;28;20124;-79
2022/05/29 07:55:18;;;;;;;5.45;1.23;;;11.30;99.90;;;;;;4990380;28;20046;-80
2022/05/29 07:57:45;;;;;;;2.22;0.95;;;11.30;99.90;;;;;;5002453;28;20045;-86
2022/05/29 08:00:12;;;;;;;7.00;1.55;;;11.40;99.90;;;;;;5002281;28;20508;-80
2022/05/29 08:02:38;;;;;;;1.98;1.08;;;11.50;99.90;;;;;;5017464;28;20053;-77
2022/05/29 08:05:06;;;;;;;0.68;0.68;;;11.60;99.90;;;;;;5000663;28;20420;-79
2022/05/29 08:07:32;;;;;;;7.30;0.90;;;11.60;99.90;;;;;;5001720;28;20117;-79
2022/05/29 08:10:01;;;;;;;8.10;0.40;;;11.60;99.90;;;;;;5002760;28;20125;-79
2022/05/29 08:12:27;;;;;;;0.57;0.52;;;11.60;99.90;;;;;;5002204;28;20451;-77
2022/05/29 08:14:52;;;;;;;1.77;0.93;;;11.50;99.90;;;;;;5001925;28;20041;-78
2022/05/29 08:17:18;;;;;;;1.88;0.85;;;11.50;99.90;;;;;;5002002;28;20048;-78
2022/05/29 08:19:43;;;;;;;0.32;0.32;;;11.40;99.90;;;;;;4999657;28;20477;-78
2022/05/29 08:22:09;;;;;;;0.60;0.60;;;11.40;99.90;;;;;;5000506;28;20037;-79
2022/05/29 08:33:16;;;;;;;1.45;0.80;;;11.40;99.90;;;;;;4998325;28;20048;-80
2022/05/29 08:35:45;;;;;;;2.47;0.45;;;11.40;99.90;;;;;;4997674;28;20041;-79
2022/05/29 08:38:12;;;;;;;2.40;0.98;;;11.30;99.90;;;;;;4999142;28;20489;-79
2022/05/29 08:40:45;;;;;;;1.10;1.02;;;11.30;99.90;;;;;;5000303;28;20033;-79
2022/05/29 08:43:20;;;;;;;0.95;0.80;;;11.20;99.90;;;;;;4998821;28;20081;-79
2022/05/29 08:45:48;;;;;;;1.02;0.93;;;11.00;99.90;;;;;;5000581;28;20030;-80
2022/05/29 08:48:16;;;;;;;2.38;1.45;;;11.00;99.90;;;;;;4997017;28;20050;-79
2022/05/29 08:51:02;;;;;;;3.95;1.27;;;10.90;99.90;;;;;;4999083;28;20038;-80
2022/05/29 08:53:56;;;;;;;1.05;1.05;;;10.90;99.90;;;;;;5000027;28;20050;-79
2022/05/29 08:56:35;;;;;;;0.75;0.75;;;10.90;99.90;;;;;;4969604;28;20058;-79
2022/05/29 08:59:25;;;;;;;2.22;1.63;;;10.90;99.90;;;;;;4984254;28;20045;-79
2022/05/29 09:02:13;;;;;;;1.90;0.90;;;10.90;99.90;;;;;;5000137;28;20050;-79
2022/05/29 09:04:48;;;;;;;2.50;1.10;;;11.00;99.90;;;;;;4978828;28;20048;-79
2022/05/29 09:07:17;;;;;;;1.83;1.10;;;11.00;99.90;;;;;;4999809;28;20034;-78
2022/05/29 09:09:49;;;;;;;2.40;1.75;;;11.10;99.90;;;;;;5002707;28;20042;-78
2022/05/29 09:12:26;;;;;;;6.28;0.95;;;11.20;99.90;;;;;;5004868;28;20081;-79
2022/05/29 09:14:53;;;;;;;7.30;1.70;;;11.40;99.90;;;;;;4987696;28;20225;-82
2022/05/29 09:17:35;;;;;;;7.05;1.17;;;11.40;99.90;;;;;;5003973;28;20433;-80
2022/05/29 09:20:06;;;;;;;1.13;1.05;;;11.50;99.90;;;;;;5002078;28;20044;-81
2022/05/29 09:22:36;;;;;;;0.70;0.60;;;11.50;99.90;;;;;;5002154;28;20307;-81
2022/05/29 09:25:08;;;;;;;0.77;0.77;;;11.60;99.90;;;;;;5002913;28;20084;-78
2022/05/29 09:27:37;;;;;;;0.63;0.63;;;11.50;99.90;;;;;;4998140;28;20053;-80
2022/05/29 09:30:07;;;;;;;1.05;0.68;;;11.50;99.90;;;;;;4984311;28;20488;-80
2022/05/29 09:32:35;;;;;;;1.77;0.80;;;11.50;99.90;;;;;;5001543;28;20042;-80
2022/05/29 09:35:20;;;;;;;0.40;0.40;;;11.50;99.90;;;;;;5001938;28;20132;-81
2022/05/29 09:38:18;;;;;;;5.15;0.77;;;11.50;99.90;;;;;;5000371;28;20038;-81
2022/05/29 09:40:56;;;;;;;2.60;1.60;;;11.50;99.90;;;;;;4969666;28;20108;-80
2022/05/29 09:43:25;;;;;;;1.88;1.27;;;11.50;99.90;;;;;;4985872;28;20111;-81
2022/05/29 09:45:52;;;;;;;3.10;0.60;;;11.50;99.90;;;;;;5003609;28;20049;-80
2022/05/29 09:51:31;;;;;;;2.97;0.95;;;11.40;99.90;;;;;;5002529;28;20049;-83
2022/05/29 09:54:03;;;;;;;1.00;0.98;;;11.50;99.90;;;;;;5001843;28;20053;-79
2022/05/29 09:56:31;;;;;;;2.28;2.08;;;11.50;99.90;;;;;;4985790;28;20532;-81
2022/05/29 09:59:02;;;;;;;1.38;1.27;;;11.40;99.90;;;;;;4986253;28;20038;-80
2022/05/29 10:01:34;;;;;;;0.60;0.60;;;11.30;99.90;;;;;;4995460;28;20156;-80
2022/05/29 10:04:03;;;;;;;0.85;0.75;;;11.30;99.90;;;;;;4998520;28;20062;-80
2022/05/29 10:06:41;;;;;;;1.85;0.63;;;11.30;99.90;;;;;;4996716;28;20107;-80
2022/05/29 10:09:09;;;;;;;0.25;0.25;;;11.30;99.90;;;;;;4980691;28;20069;-79
2022/05/29 10:11:35;;;;;;;0.30;0.30;;;11.30;99.90;;;;;;5002804;28;20052;-81
2022/05/29 10:14:19;;;;;;;2.58;0.60;;;11.30;99.90;;;;;;4999500;28;20456;-81
2022/05/29 10:16:47;;;;;;;0.60;0.60;;;11.40;99.90;;;;;;5001627;28;20049;-81
2022/05/29 10:19:30;;;;;;;0.73;0.50;;;11.50;99.90;;;;;;5001707;28;20038;-80
2022/05/29 10:21:55;;;;;;;1.50;0.88;;;11.50;99.90;;;;;;5002096;28;20045;-81
2022/05/29 10:24:28;;;;;;;0.65;0.65;;;11.70;99.90;;;;;;5000254;28;20053;-80
2022/05/29 10:27:02;;;;;;;0.55;0.55;;;11.70;99.90;;;;;;5003611;28;20034;-79
2022/05/29 10:29:31;;;;;;;1.85;0.65;;;11.90;99.90;;;;;;5002851;28;20049;-81
2022/05/29 10:31:59;;;;;;;0.40;0.40;;;11.90;99.90;;;;;;5002761;28;20068;-80
2022/05/29 10:34:33;;;;;;;0.43;0.43;;;12.00;99.90;;;;;;5004764;28;20045;-83
2022/05/29 10:37:01;;;;;;;2.20;0.43;;;12.10;99.90;;;;;;5003992;28;20045;-80
2022/05/29 10:39:31;;;;;;;1.27;0.75;;;12.10;99.90;;;;;;5003305;28;20057;-80
2022/05/29 10:41:58;;;;;;;0.35;0.35;;;12.10;99.90;;;;;;5003576;28;20508;-79
2022/05/29 10:44:46;;;;;;;1.90;1.13;;;12.00;99.90;;;;;;5002554;28;20068;-80
2022/05/29 10:47:41;;;;;;;0.50;0.50;;;12.00;99.90;;;;;;4994114;28;20049;-80
2022/05/29 10:50:23;;;;;;;3.00;1.92;;;12.00;99.90;;;;;;5003341;28;20084;-81
2022/05/29 10:53:13;;;;;;;0.30;0.30;;;12.00;99.90;;;;;;5002811;28;20137;-80
2022/05/29 10:56:02;;;;;;;0.60;0.55;;;11.90;99.90;;;;;;5002397;28;20037;-84
2022/05/29 10:58:47;;;;;;;3.75;0.98;;;11.80;99.90;;;;;;5002558;28;20287;-81
2022/05/29 11:04:46;;;;;;;0.60;0.50;;;11.70;99.90;;;;;;4963465;28;20146;-82
2022/05/29 11:07:51;;;;;;;1.55;1.45;;;11.60;99.90;;;;;;4962117;28;20097;-81
2022/05/29 11:10:46;;;;;;;2.17;1.08;;;11.50;99.90;;;;;;4928063;28;20065;-82
2022/05/29 11:13:20;;;;;;;0.85;0.52;;;11.50;99.90;;;;;;4962771;28;20047;-80
2022/05/29 11:16:21;;;;;;;2.22;1.17;;;11.50;99.90;;;;;;4979609;28;20053;-87
2022/05/29 11:19:08;;;;;;;9.60;1.17;;;11.60;99.90;;;;;;4969624;28;20181;-82
2022/05/29 11:21:51;;;;;;;11.10;0.90;;;11.60;99.90;;;;;;4978306;28;20043;-86
2022/05/29 11:24:45;;;;;;;4.47;1.05;;;11.70;99.90;;;;;;4961886;28;20051;-79
2022/05/29 11:27:30;;;;;;;0.68;0.52;;;11.80;99.90;;;;;;4945973;28;20138;-76
2022/05/29 11:30:02;;;;;;;0.20;0.20;;;11.90;99.90;;;;;;4963694;28;20039;-78
2022/05/29 11:32:52;;;;;;;2.97;1.20;;;12.00;99.90;;;;;;4960762;28;20502;-80
2022/05/29 11:35:27;;;;;;;1.00;1.00;;;12.10;99.90;;;;;;4961170;28;20042;-78
2022/05/29 11:38:12;;;;;;;1.02;0.55;;;12.20;99.90;;;;;;4961691;28;20039;-77
2022/05/29 11:40:45;;;;;;;0.68;0.68;;;12.30;99.90;;;;;;4960930;28;20057;-77
2022/05/29 11:43:32;;;;;;;2.50;1.08;;;12.30;99.90;;;;;;4960951;28;20129;-77
2022/05/29 11:52:52;;;;;;;1.65;0.70;;;12.40;99.90;;;;;;4931585;28;20042;-77
2022/05/29 11:55:29;;;;;;;0.65;0.43;;;12.40;99.90;;;;;;4959113;28;20582;-77
2022/05/29 11:58:03;;;;;;;2.83;0.85;;;12.40;99.90;;;;;;4955867;28;20112;-79
2022/05/29 12:00:35;;;;;;;8.00;0.70;;;12.30;99.90;;;;;;4963556;28;20035;-77
2022/05/29 12:03:08;;;;;;;3.78;0.93;;;12.20;99.90;;;;;;4976249;28;20065;-77
2022/05/29 12:05:48;;;;;;;1.70;1.25;;;12.10;99.90;;;;;;5000752;28;20053;-78
2022/05/29 12:08:20;;;;;;;2.05;0.68;;;12.10;99.90;;;;;;4999845;28;20708;-80
2022/05/29 12:11:23;;;;;;;0.57;0.35;;;12.10;99.90;;;;;;4996709;28;20116;-84
2022/05/29 12:14:06;;;;;;;0.50;0.50;;;12.10;99.90;;;;;;4997657;28;20062;-79
2022/05/29 12:16:34;;;;;;;1.45;0.57;;;12.20;99.90;;;;;;4993420;28;20412;-79
2022/05/29 12:19:06;;;;;;;0.93;0.65;;;12.20;99.90;;;;;;4994650;28;20157;-81
2022/05/29 12:21:49;;;;;;;1.48;1.05;;;12.20;99.90;;;;;;4994205;28;20053;-81
2022/05/29 12:24:21;;;;;;;1.85;0.68;;;12.30;99.90;;;;;;4997357;28;20054;-79
2022/05/29 12:27:02;;;;;;;0.82;0.82;;;12.40;99.90;;;;;;4999437;28;20050;-75
2022/05/29 12:29:32;;;;;;;1.00;0.75;;;12.50;99.90;;;;;;4999315;28;20095;-78
2022/05/29 12:32:30;;;;;;;2.92;0.93;;;12.50;99.90;;;;;;4998588;28;20046;-77
2022/05/29 12:35:07;;;;;;;4.38;0.77;;;12.60;99.90;;;;;;4984331;28;20045;-79
2022/05/29 12:37:56;;;;;;;0.98;0.98;;;12.60;99.90;;;;;;4979711;28;20049;-75
2022/05/29 12:40:37;;;;;;;1.30;1.13;;;12.50;99.90;;;;;;4998100;28;20065;-75
2022/05/29 12:43:26;;;;;;;0.55;0.55;;;12.50;99.90;;;;;;4997258;28;20038;-77
2022/05/29 12:46:28;;;;;;;2.47;0.88;;;12.40;99.90;;;;;;4999337;28;20416;-77
2022/05/29 12:49:04;;;;;;;8.10;1.48;;;12.40;99.90;;;;;;5014572;28;20043;-74
2022/05/29 12:51:37;;;;;;;2.00;0.80;;;12.20;99.90;;;;;;5001875;28;20065;-74
2022/05/29 12:54:45;;;;;;;1.35;1.25;;;12.20;99.90;;;;;;4999310;28;20489;-77
2022/05/29 12:57:40;;;;;;;9.23;1.25;;;12.30;99.90;;;;;;5000701;28;20559;-79
2022/05/29 13:00:36;;;;;;;1.92;0.60;;;12.40;99.90;;;;;;4988053;28;20053;-76
2022/05/29 13:03:35;;;;;;;1.15;0.80;;;12.60;99.90;;;;;;4999323;28;20060;-79
2022/05/29 13:06:17;;;;;;;1.30;0.80;;;12.70;99.90;;;;;;5010026;28;20044;-78
2022/05/29 13:09:14;;;;;;;0.67;0.43;;;12.90;99.90;;;;;;4995683;28;20058;-77
2022/05/29 13:11:47;;;;;;;1.27;1.08;;;12.90;99.90;;;;;;5000072;28;20324;-77
2022/05/29 13:14:16;;;;;;;0.63;0.35;;;12.80;99.90;;;;;;5000256;28;20038;-77
2022/05/29 13:16:44;;;;;;;1.65;0.98;;;12.70;99.90;;;;;;4987633;28;20038;-78
2022/05/29 13:19:17;;;;;;;0.50;0.50;;;12.60;99.90;;;;;;5000082;28;20053;-77
2022/05/29 13:21:57;;;;;;;3.15;0.85;;;12.50;99.90;;;;;;4992097;28;20096;-77
2022/05/29 13:24:34;;;;;;;7.20;0.85;;;12.50;99.90;;;;;;4998083;28;20492;-77
2022/05/29 13:27:27;;;;;;;1.55;1.45;;;12.40;99.90;;;;;;4999652;28;20057;-75
2022/05/29 13:29:56;;;;;;;1.75;1.02;;;12.40;99.90;;;;;;4999497;28;20045;-79
2022/05/29 13:32:24;;;;;;;0.35;0.35;;;12.40;99.90;;;;;;5000926;28;20045;-78
2022/05/29 13:35:16;;;;;;;8.20;1.40;;;12.40;99.90;;;;;;5014620;28;20042;-76
2022/05/29 13:37:47;;;;;;;3.08;1.80;;;12.50;99.90;;;;;;4998475;28;20081;-77
2022/05/29 13:40:32;;;;;;;7.30;1.07;;;12.50;99.90;;;;;;4981186;28;20128;-78
2022/05/29 13:43:34;;;;;;;1.83;1.17;;;12.60;99.90;;;;;;4990601;28;20049;-76
2022/05/29 13:46:27;;;;;;;1.33;0.80;;;12.60;99.90;;;;;;4972565;28;20508;-77
2022/05/29 13:49:03;;;;;;;2.03;1.60;;;12.60;99.90;;;;;;4997399;28;20046;-77
2022/05/29 13:51:36;;;;;;;2.28;1.30;;;12.70;99.90;;;;;;5001635;28;20034;-77
2022/05/29 13:54:03;;;;;;;;;;;12.80;99.90;;;;;;5000224;28;20042;-78
2022/05/29 13:56:53;;;;;;;2.83;1.13;;;12.80;99.90;;;;;;5004453;28;19921;-76
2022/05/29 14:05:34;;;;;;;2.50;1.25;;;12.90;99.90;;;;;;4994490;28;20388;-76